Terminal Aerodrome Forecast
Issued by NWS

Home | Current Version | Previous Version | Text Only | Print | Product List | Glossary On
Versions: 1 2 3 4 5 6 7 8 9 10 11 12
000
FTUS41 KPHI 222340
TAFPNE
TAF
KPNE 222340Z 2300/2324 22005KT P6SM BKN250
     FM230600 21003KT 5SM BR SCT250
     FM230800 VRB03KT 2SM BR OVC008
      TEMPO 2310/2313 1/2SM FG VV003
     FM231400 21004KT 2SM BR OVC007
     FM231600 23006KT 6SM BR BKN020
     FM231800 23008KT P6SM SCT015 BKN060=

USA.gov is the U.S. government's official web portal to all federal, state and local government web resources and services.